Startpagina
METAR-TAF:

METAR-TAF

Vliegvelden :

Luchthaven Toncontín

Tegucigalpa, Honduras

breedte: 14-03N, lengte: 087-13W, hoogte: 994 m

Actueel weer

Dit bericht is 48 minuten geleden gemaakt, om 19:00 UTC
Wind 10 kt uit het oosten
Temperatuur 27°C
Vochtigheid 42%
Druk 1017 hPa
Zicht 10 km of meer
Weinig wolken op 3200 ft
Verspreide wolken op 2500 ft

METAR: MHTG 181900Z 09010KT 9999 FEW032 SCT025 27/13 Q1017 A3003 NOSIG

Tijdstip: 13:48 (19:48 UTC)

Verwachting

Dit bericht is 3 uur en het 8 minuten geleden gemaakt, om 16:40 UTC
Verwachting geldig van 18 om 18 UTC tot 19 om 18 UTC
Wind 10 kt uit het oosten
Zicht 10 km of meer
Weinig wolken op 3400 ft
Wijzigt naar
van 19 om 06 UTC tot 19 om 08 UTC
Wind 5 kt uit het noorden
Zicht: 8000 m
Weinig wolken op 1200 ft
Gebroken wolken op 2800 ft
Wijzigt naar
van 19 om 12 UTC tot 19 om 14 UTC
Zicht 10 km of meer
Weinig wolken op 2800 ft

TAF: MHTG 181640Z 1818/1918 08010KT 9999 FEW034 TX28/1821Z TN17/1910Z BECMG 1906/1908 36005KT 8000 FEW012 BKN028 BECMG 1912/1914 9999 FEW028

Waarnemingen en weersverwachtingen van meer dan 4000 vliegvelden (METAR en TAF).

De beschikbare stations zijn de gele en rode punten op de kaart.

Ga met uw muis naar het station om de naam te zien.

Klik dan om waarnemingen en weersverwachtingen te zien.

kaart wijzigen: klik op de groene knoppen met een zwart kruis om in te zoomen, op de groene knop met een streepje om uit te zoomen of op de groene pijlen voor aangrenzende kaarten.


METAR-TAF: